sensor_id;sensor_type;location;lat;lon;timestamp;temperature;humidity
16879;DHT22;8556;52.218;9.884;2023-12-14T00:01:30;4.90;99.90
16879;DHT22;8556;52.218;9.884;2023-12-14T00:03:57;4.80;99.90
16879;DHT22;8556;52.218;9.884;2023-12-14T00:06:24;4.80;99.90
16879;DHT22;8556;52.218;9.884;2023-12-14T00:08:52;4.80;99.90
16879;DHT22;8556;52.218;9.884;2023-12-14T00:11:18;4.80;99.90
16879;DHT22;8556;52.218;9.884;2023-12-14T00:13:45;4.70;99.90
16879;DHT22;8556;52.218;9.884;2023-12-14T00:16:12;4.70;99.90
16879;DHT22;8556;52.218;9.884;2023-12-14T00:18:39;4.70;99.90
16879;DHT22;8556;52.218;9.884;2023-12-14T00:21:06;4.70;99.90
16879;DHT22;8556;52.218;9.884;2023-12-14T00:23:34;4.70;99.90
16879;DHT22;8556;52.218;9.884;2023-12-14T00:26:02;4.70;99.90
16879;DHT22;8556;52.218;9.884;2023-12-14T00:28:29;4.70;99.90
16879;DHT22;8556;52.218;9.884;2023-12-14T00:30:56;4.70;99.90
16879;DHT22;8556;52.218;9.884;2023-12-14T00:33:23;4.70;99.90
16879;DHT22;8556;52.218;9.884;2023-12-14T00:35:49;4.80;99.90
16879;DHT22;8556;52.218;9.884;2023-12-14T00:38:17;4.70;99.90
16879;DHT22;8556;52.218;9.884;2023-12-14T00:40:44;4.70;99.90
16879;DHT22;8556;52.218;9.884;2023-12-14T00:43:12;4.60;99.90
16879;DHT22;8556;52.218;9.884;2023-12-14T00:45:39;4.60;99.90
16879;DHT22;8556;52.218;9.884;2023-12-14T00:48:06;4.50;99.90
16879;DHT22;8556;52.218;9.884;2023-12-14T00:50:33;4.50;99.90
16879;DHT22;8556;52.218;9.884;2023-12-14T00:53:00;4.60;99.90
16879;DHT22;8556;52.218;9.884;2023-12-14T00:55:27;4.50;99.90
16879;DHT22;8556;52.218;9.884;2023-12-14T00:57:54;4.50;99.90
16879;DHT22;8556;52.218;9.884;2023-12-14T01:00:22;4.50;99.90
16879;DHT22;8556;52.218;9.884;2023-12-14T01:02:49;4.50;99.90
16879;DHT22;8556;52.218;9.884;2023-12-14T01:05:16;4.50;99.90
16879;DHT22;8556;52.218;9.884;2023-12-14T01:07:43;4.50;99.90
16879;DHT22;8556;52.218;9.884;2023-12-14T01:10:10;4.50;99.90
16879;DHT22;8556;52.218;9.884;2023-12-14T01:12:37;4.50;99.90
16879;DHT22;8556;52.218;9.884;2023-12-14T01:15:05;4.50;99.90
16879;DHT22;8556;52.218;9.884;2023-12-14T01:17:33;4.40;99.90
16879;DHT22;8556;52.218;9.884;2023-12-14T01:20:04;4.40;99.90
16879;DHT22;8556;52.218;9.884;2023-12-14T01:22:31;4.40;99.90
16879;DHT22;8556;52.218;9.884;2023-12-14T01:24:58;4.40;99.90
16879;DHT22;8556;52.218;9.884;2023-12-14T01:27:25;4.60;99.90
16879;DHT22;8556;52.218;9.884;2023-12-14T01:29:51;4.40;99.90
16879;DHT22;8556;52.218;9.884;2023-12-14T01:32:18;4.30;99.90
16879;DHT22;8556;52.218;9.884;2023-12-14T01:34:46;4.60;99.90
16879;DHT22;8556;52.218;9.884;2023-12-14T01:37:13;4.40;99.90
16879;DHT22;8556;52.218;9.884;2023-12-14T01:39:40;4.30;99.90
16879;DHT22;8556;52.218;9.884;2023-12-14T01:42:07;4.20;99.90
16879;DHT22;8556;52.218;9.884;2023-12-14T01:44:33;4.20;99.90
16879;DHT22;8556;52.218;9.884;2023-12-14T01:47:00;4.10;99.90
16879;DHT22;8556;52.218;9.884;2023-12-14T01:49:27;4.20;99.90
16879;DHT22;8556;52.218;9.884;2023-12-14T01:51:55;4.10;99.90
16879;DHT22;8556;52.218;9.884;2023-12-14T01:54:22;4.20;99.90
16879;DHT22;8556;52.218;9.884;2023-12-14T01:56:49;4.10;99.90
16879;DHT22;8556;52.218;9.884;2023-12-14T01:59:15;4.10;99.90
16879;DHT22;8556;52.218;9.884;2023-12-14T02:01:44;4.10;99.90
16879;DHT22;8556;52.218;9.884;2023-12-14T02:04:11;4.10;99.90
16879;DHT22;8556;52.218;9.884;2023-12-14T02:06:39;4.10;99.90
16879;DHT22;8556;52.218;9.884;2023-12-14T02:09:07;4.10;99.90
16879;DHT22;8556;52.218;9.884;2023-12-14T02:11:34;4.10;99.90
16879;DHT22;8556;52.218;9.884;2023-12-14T02:14:03;4.10;99.90
16879;DHT22;8556;52.218;9.884;2023-12-14T02:16:30;4.10;99.90
16879;DHT22;8556;52.218;9.884;2023-12-14T02:18:58;4.10;99.90
16879;DHT22;8556;52.218;9.884;2023-12-14T02:21:25;4.20;99.90
16879;DHT22;8556;52.218;9.884;2023-12-14T02:23:53;4.20;99.90
16879;DHT22;8556;52.218;9.884;2023-12-14T02:26:20;4.10;99.90
16879;DHT22;8556;52.218;9.884;2023-12-14T02:28:47;4.10;99.90
16879;DHT22;8556;52.218;9.884;2023-12-14T02:31:13;4.10;99.90
16879;DHT22;8556;52.218;9.884;2023-12-14T02:33:40;4.00;99.90
16879;DHT22;8556;52.218;9.884;2023-12-14T02:36:07;4.00;99.90
16879;DHT22;8556;52.218;9.884;2023-12-14T02:38:34;4.00;99.90
16879;DHT22;8556;52.218;9.884;2023-12-14T02:41:02;4.10;99.90
16879;DHT22;8556;52.218;9.884;2023-12-14T02:43:29;4.00;99.90
16879;DHT22;8556;52.218;9.884;2023-12-14T02:45:56;4.00;99.90
16879;DHT22;8556;52.218;9.884;2023-12-14T02:48:27;4.00;99.90
16879;DHT22;8556;52.218;9.884;2023-12-14T02:50:54;4.00;99.90
16879;DHT22;8556;52.218;9.884;2023-12-14T02:53:21;4.00;99.90
16879;DHT22;8556;52.218;9.884;2023-12-14T02:55:47;4.00;99.90
16879;DHT22;8556;52.218;9.884;2023-12-14T02:58:16;4.00;99.90
16879;DHT22;8556;52.218;9.884;2023-12-14T03:00:42;4.00;99.90
16879;DHT22;8556;52.218;9.884;2023-12-14T03:03:09;4.00;99.90
16879;DHT22;8556;52.218;9.884;2023-12-14T03:05:36;4.00;99.90
16879;DHT22;8556;52.218;9.884;2023-12-14T03:08:03;4.10;99.90
16879;DHT22;8556;52.218;9.884;2023-12-14T03:10:30;4.00;99.90
16879;DHT22;8556;52.218;9.884;2023-12-14T03:12:57;4.00;99.90
16879;DHT22;8556;52.218;9.884;2023-12-14T03:15:25;3.90;99.90
16879;DHT22;8556;52.218;9.884;2023-12-14T03:17:52;3.90;99.90
16879;DHT22;8556;52.218;9.884;2023-12-14T03:20:18;3.90;99.90
16879;DHT22;8556;52.218;9.884;2023-12-14T03:22:45;3.80;99.90
16879;DHT22;8556;52.218;9.884;2023-12-14T03:25:13;3.80;99.90
16879;DHT22;8556;52.218;9.884;2023-12-14T03:27:40;3.80;99.90
16879;DHT22;8556;52.218;9.884;2023-12-14T03:30:07;3.80;99.90
16879;DHT22;8556;52.218;9.884;2023-12-14T03:32:37;3.80;99.90
16879;DHT22;8556;52.218;9.884;2023-12-14T03:35:04;3.80;99.90
16879;DHT22;8556;52.218;9.884;2023-12-14T03:37:34;3.80;99.90
16879;DHT22;8556;52.218;9.884;2023-12-14T03:40:00;3.80;99.90
16879;DHT22;8556;52.218;9.884;2023-12-14T03:42:27;3.90;99.90
16879;DHT22;8556;52.218;9.884;2023-12-14T03:44:54;3.80;99.90
16879;DHT22;8556;52.218;9.884;2023-12-14T03:47:21;3.80;99.90
16879;DHT22;8556;52.218;9.884;2023-12-14T03:49:49;3.80;99.90
16879;DHT22;8556;52.218;9.884;2023-12-14T03:52:16;3.90;99.90
16879;DHT22;8556;52.218;9.884;2023-12-14T03:54:43;3.90;99.90
16879;DHT22;8556;52.218;9.884;2023-12-14T03:57:10;3.90;99.90
16879;DHT22;8556;52.218;9.884;2023-12-14T03:59:39;3.90;99.90
16879;DHT22;8556;52.218;9.884;2023-12-14T04:02:05;3.90;99.90
16879;DHT22;8556;52.218;9.884;2023-12-14T04:04:32;4.00;99.90
16879;DHT22;8556;52.218;9.884;2023-12-14T04:07:00;4.00;99.90
16879;DHT22;8556;52.218;9.884;2023-12-14T04:09:27;4.00;99.90
16879;DHT22;8556;52.218;9.884;2023-12-14T04:11:54;4.00;99.90
16879;DHT22;8556;52.218;9.884;2023-12-14T04:14:21;4.00;99.90
16879;DHT22;8556;52.218;9.884;2023-12-14T04:16:47;4.00;99.90
16879;DHT22;8556;52.218;9.884;2023-12-14T04:19:14;4.00;99.90
16879;DHT22;8556;52.218;9.884;2023-12-14T04:21:41;4.10;99.90
16879;DHT22;8556;52.218;9.884;2023-12-14T04:24:09;4.10;99.90
16879;DHT22;8556;52.218;9.884;2023-12-14T04:26:38;4.10;99.90
16879;DHT22;8556;52.218;9.884;2023-12-14T04:29:05;4.00;99.90
16879;DHT22;8556;52.218;9.884;2023-12-14T04:31:32;4.00;99.90
16879;DHT22;8556;52.218;9.884;2023-12-14T04:33:59;4.00;99.90
16879;DHT22;8556;52.218;9.884;2023-12-14T04:36:25;4.00;99.90
16879;DHT22;8556;52.218;9.884;2023-12-14T04:38:52;4.00;99.90
16879;DHT22;8556;52.218;9.884;2023-12-14T04:41:20;4.10;99.90
16879;DHT22;8556;52.218;9.884;2023-12-14T04:43:47;4.10;99.90
16879;DHT22;8556;52.218;9.884;2023-12-14T04:46:14;4.00;99.90
16879;DHT22;8556;52.218;9.884;2023-12-14T04:48:41;4.00;99.90
16879;DHT22;8556;52.218;9.884;2023-12-14T04:51:11;3.90;99.90
16879;DHT22;8556;52.218;9.884;2023-12-14T04:53:38;4.00;99.90
16879;DHT22;8556;52.218;9.884;2023-12-14T04:56:09;3.90;99.90
16879;DHT22;8556;52.218;9.884;2023-12-14T04:58:38;3.90;99.90
16879;DHT22;8556;52.218;9.884;2023-12-14T05:01:05;3.90;99.90
16879;DHT22;8556;52.218;9.884;2023-12-14T05:03:32;3.90;99.90
16879;DHT22;8556;52.218;9.884;2023-12-14T05:05:59;3.90;99.90
16879;DHT22;8556;52.218;9.884;2023-12-14T05:08:26;3.80;99.90
16879;DHT22;8556;52.218;9.884;2023-12-14T05:10:53;3.80;99.90
16879;DHT22;8556;52.218;9.884;2023-12-14T05:13:20;3.80;99.90
16879;DHT22;8556;52.218;9.884;2023-12-14T05:15:48;3.70;99.90
16879;DHT22;8556;52.218;9.884;2023-12-14T05:18:14;3.90;99.90
16879;DHT22;8556;52.218;9.884;2023-12-14T05:20:41;3.70;99.90
16879;DHT22;8556;52.218;9.884;2023-12-14T05:23:08;3.80;99.90
16879;DHT22;8556;52.218;9.884;2023-12-14T05:25:35;3.80;99.90
16879;DHT22;8556;52.218;9.884;2023-12-14T05:28:02;3.80;99.90
16879;DHT22;8556;52.218;9.884;2023-12-14T05:30:29;3.90;99.90
16879;DHT22;8556;52.218;9.884;2023-12-14T05:32:57;3.90;99.90
16879;DHT22;8556;52.218;9.884;2023-12-14T05:35:24;3.80;99.90
16879;DHT22;8556;52.218;9.884;2023-12-14T05:37:50;3.80;99.90
16879;DHT22;8556;52.218;9.884;2023-12-14T05:40:17;3.90;99.90
16879;DHT22;8556;52.218;9.884;2023-12-14T05:42:44;3.90;99.90
16879;DHT22;8556;52.218;9.884;2023-12-14T05:45:11;4.10;99.90
16879;DHT22;8556;52.218;9.884;2023-12-14T05:47:38;4.00;99.90
16879;DHT22;8556;52.218;9.884;2023-12-14T05:50:08;3.90;99.90
16879;DHT22;8556;52.218;9.884;2023-12-14T05:52:36;3.90;99.90
16879;DHT22;8556;52.218;9.884;2023-12-14T05:55:03;3.90;99.90
16879;DHT22;8556;52.218;9.884;2023-12-14T05:57:30;3.90;99.90
16879;DHT22;8556;52.218;9.884;2023-12-14T05:59:57;3.90;99.90
16879;DHT22;8556;52.218;9.884;2023-12-14T06:02:23;3.90;99.90
16879;DHT22;8556;52.218;9.884;2023-12-14T06:04:50;3.90;99.90
16879;DHT22;8556;52.218;9.884;2023-12-14T06:07:18;4.30;99.90
16879;DHT22;8556;52.218;9.884;2023-12-14T06:09:45;4.00;99.90
16879;DHT22;8556;52.218;9.884;2023-12-14T06:12:12;4.00;99.90
16879;DHT22;8556;52.218;9.884;2023-12-14T06:14:39;4.00;99.90
16879;DHT22;8556;52.218;9.884;2023-12-14T06:17:06;4.00;99.90
16879;DHT22;8556;52.218;9.884;2023-12-14T06:19:33;4.00;99.90
16879;DHT22;8556;52.218;9.884;2023-12-14T06:22:00;4.20;99.90
16879;DHT22;8556;52.218;9.884;2023-12-14T06:24:28;4.00;99.90
16879;DHT22;8556;52.218;9.884;2023-12-14T06:26:55;3.90;99.90
16879;DHT22;8556;52.218;9.884;2023-12-14T06:29:21;3.90;99.90
16879;DHT22;8556;52.218;9.884;2023-12-14T06:31:48;4.00;99.90
16879;DHT22;8556;52.218;9.884;2023-12-14T06:34:15;4.00;99.90
16879;DHT22;8556;52.218;9.884;2023-12-14T06:36:43;3.90;99.90
16879;DHT22;8556;52.218;9.884;2023-12-14T06:39:10;4.00;99.90
16879;DHT22;8556;52.218;9.884;2023-12-14T06:41:38;4.00;99.90
16879;DHT22;8556;52.218;9.884;2023-12-14T06:44:05;4.00;99.90
16879;DHT22;8556;52.218;9.884;2023-12-14T06:46:34;4.00;99.90
16879;DHT22;8556;52.218;9.884;2023-12-14T06:49:01;4.00;99.90
16879;DHT22;8556;52.218;9.884;2023-12-14T06:51:28;4.00;99.90
16879;DHT22;8556;52.218;9.884;2023-12-14T06:53:55;3.90;99.90
16879;DHT22;8556;52.218;9.884;2023-12-14T06:56:22;4.00;99.90
16879;DHT22;8556;52.218;9.884;2023-12-14T06:58:51;4.00;99.90
16879;DHT22;8556;52.218;9.884;2023-12-14T07:01:17;4.00;99.90
16879;DHT22;8556;52.218;9.884;2023-12-14T07:03:45;4.00;99.90
16879;DHT22;8556;52.218;9.884;2023-12-14T07:06:12;4.10;99.90
16879;DHT22;8556;52.218;9.884;2023-12-14T07:08:40;4.00;99.90
16879;DHT22;8556;52.218;9.884;2023-12-14T07:11:07;3.90;99.90
16879;DHT22;8556;52.218;9.884;2023-12-14T07:13:34;4.00;99.90
16879;DHT22;8556;52.218;9.884;2023-12-14T07:16:05;4.00;99.90
16879;DHT22;8556;52.218;9.884;2023-12-14T07:18:33;4.00;99.90
16879;DHT22;8556;52.218;9.884;2023-12-14T07:21:00;4.20;99.90
16879;DHT22;8556;52.218;9.884;2023-12-14T07:23:27;3.90;99.90
16879;DHT22;8556;52.218;9.884;2023-12-14T07:25:54;3.90;99.90
16879;DHT22;8556;52.218;9.884;2023-12-14T07:28:21;4.00;99.90
16879;DHT22;8556;52.218;9.884;2023-12-14T07:30:49;4.00;99.90
16879;DHT22;8556;52.218;9.884;2023-12-14T07:33:17;4.00;99.90
16879;DHT22;8556;52.218;9.884;2023-12-14T07:35:44;4.00;99.90
16879;DHT22;8556;52.218;9.884;2023-12-14T07:38:11;4.00;99.90
16879;DHT22;8556;52.218;9.884;2023-12-14T07:40:38;4.00;99.90
16879;DHT22;8556;52.218;9.884;2023-12-14T07:43:06;4.00;99.90
16879;DHT22;8556;52.218;9.884;2023-12-14T07:45:33;4.00;99.90
16879;DHT22;8556;52.218;9.884;2023-12-14T07:48:00;4.00;99.90
16879;DHT22;8556;52.218;9.884;2023-12-14T07:50:29;4.00;99.90
16879;DHT22;8556;52.218;9.884;2023-12-14T07:52:56;4.00;99.90
16879;DHT22;8556;52.218;9.884;2023-12-14T07:55:23;4.00;99.90
16879;DHT22;8556;52.218;9.884;2023-12-14T07:57:49;4.10;99.90
16879;DHT22;8556;52.218;9.884;2023-12-14T08:00:17;4.00;99.90
16879;DHT22;8556;52.218;9.884;2023-12-14T08:02:43;4.00;99.90
16879;DHT22;8556;52.218;9.884;2023-12-14T08:05:10;4.00;99.90
16879;DHT22;8556;52.218;9.884;2023-12-14T08:07:38;4.00;99.90
16879;DHT22;8556;52.218;9.884;2023-12-14T08:10:06;4.00;99.90
16879;DHT22;8556;52.218;9.884;2023-12-14T08:12:33;4.10;99.90
16879;DHT22;8556;52.218;9.884;2023-12-14T08:15:00;4.10;99.90
16879;DHT22;8556;52.218;9.884;2023-12-14T08:17:27;4.10;99.90
16879;DHT22;8556;52.218;9.884;2023-12-14T08:19:54;4.10;99.90
16879;DHT22;8556;52.218;9.884;2023-12-14T08:22:21;4.20;99.90
16879;DHT22;8556;52.218;9.884;2023-12-14T08:24:49;4.00;99.90
16879;DHT22;8556;52.218;9.884;2023-12-14T08:27:16;4.00;99.90
16879;DHT22;8556;52.218;9.884;2023-12-14T08:29:43;4.00;99.90
16879;DHT22;8556;52.218;9.884;2023-12-14T08:32:10;4.10;99.90
16879;DHT22;8556;52.218;9.884;2023-12-14T08:34:37;4.10;99.90
16879;DHT22;8556;52.218;9.884;2023-12-14T08:37:04;4.10;99.90
16879;DHT22;8556;52.218;9.884;2023-12-14T08:39:31;4.20;99.90
16879;DHT22;8556;52.218;9.884;2023-12-14T08:41:59;4.10;99.90
16879;DHT22;8556;52.218;9.884;2023-12-14T08:44:26;4.10;99.90
16879;DHT22;8556;52.218;9.884;2023-12-14T08:46:52;4.10;99.90
16879;DHT22;8556;52.218;9.884;2023-12-14T08:49:19;4.10;99.90
16879;DHT22;8556;52.218;9.884;2023-12-14T08:51:48;4.10;99.90
16879;DHT22;8556;52.218;9.884;2023-12-14T08:54:15;4.10;99.90
16879;DHT22;8556;52.218;9.884;2023-12-14T08:56:42;4.30;99.90
16879;DHT22;8556;52.218;9.884;2023-12-14T08:59:10;4.20;99.90
16879;DHT22;8556;52.218;9.884;2023-12-14T09:01:38;4.20;99.90
16879;DHT22;8556;52.218;9.884;2023-12-14T09:04:04;4.20;99.90
16879;DHT22;8556;52.218;9.884;2023-12-14T09:06:31;4.20;99.90
16879;DHT22;8556;52.218;9.884;2023-12-14T09:08:58;4.20;99.90
16879;DHT22;8556;52.218;9.884;2023-12-14T09:11:25;4.20;99.90
16879;DHT22;8556;52.218;9.884;2023-12-14T09:13:52;4.10;99.90
16879;DHT22;8556;52.218;9.884;2023-12-14T09:16:20;4.50;99.90
16879;DHT22;8556;52.218;9.884;2023-12-14T09:18:47;4.20;99.90
16879;DHT22;8556;52.218;9.884;2023-12-14T09:21:14;4.10;99.90
16879;DHT22;8556;52.218;9.884;2023-12-14T09:23:41;4.10;99.90
16879;DHT22;8556;52.218;9.884;2023-12-14T09:26:08;4.20;99.90
16879;DHT22;8556;52.218;9.884;2023-12-14T09:28:36;4.10;99.90
16879;DHT22;8556;52.218;9.884;2023-12-14T09:31:03;4.60;99.90
16879;DHT22;8556;52.218;9.884;2023-12-14T09:33:31;4.20;99.90
16879;DHT22;8556;52.218;9.884;2023-12-14T09:35:58;4.20;99.90
16879;DHT22;8556;52.218;9.884;2023-12-14T09:38:25;4.20;99.90
16879;DHT22;8556;52.218;9.884;2023-12-14T09:40:51;4.40;99.90
16879;DHT22;8556;52.218;9.884;2023-12-14T09:43:18;4.30;99.90
16879;DHT22;8556;52.218;9.884;2023-12-14T09:45:47;4.30;99.90
16879;DHT22;8556;52.218;9.884;2023-12-14T09:48:15;4.20;99.90
16879;DHT22;8556;52.218;9.884;2023-12-14T09:50:44;4.20;99.90
16879;DHT22;8556;52.218;9.884;2023-12-14T09:53:12;4.20;99.90
16879;DHT22;8556;52.218;9.884;2023-12-14T09:55:39;4.30;99.90
16879;DHT22;8556;52.218;9.884;2023-12-14T09:58:06;4.30;99.90
16879;DHT22;8556;52.218;9.884;2023-12-14T10:00:36;4.30;99.90
16879;DHT22;8556;52.218;9.884;2023-12-14T10:03:22;4.30;99.90
16879;DHT22;8556;52.218;9.884;2023-12-14T10:05:53;4.40;99.90
16879;DHT22;8556;52.218;9.884;2023-12-14T10:08:20;4.40;99.90
16879;DHT22;8556;52.218;9.884;2023-12-14T10:10:50;4.50;99.90
16879;DHT22;8556;52.218;9.884;2023-12-14T10:13:18;4.50;99.90
16879;DHT22;8556;52.218;9.884;2023-12-14T10:15:46;4.60;99.90
16879;DHT22;8556;52.218;9.884;2023-12-14T10:18:21;4.60;99.90
16879;DHT22;8556;52.218;9.884;2023-12-14T10:20:48;4.50;99.90
16879;DHT22;8556;52.218;9.884;2023-12-14T10:23:17;4.60;99.90
16879;DHT22;8556;52.218;9.884;2023-12-14T10:25:44;4.50;99.90
16879;DHT22;8556;52.218;9.884;2023-12-14T10:28:12;4.50;99.90
16879;DHT22;8556;52.218;9.884;2023-12-14T10:30:40;4.50;99.90
16879;DHT22;8556;52.218;9.884;2023-12-14T10:33:07;4.50;99.90
16879;DHT22;8556;52.218;9.884;2023-12-14T10:35:34;4.60;99.90
16879;DHT22;8556;52.218;9.884;2023-12-14T10:38:03;4.50;99.90
16879;DHT22;8556;52.218;9.884;2023-12-14T10:40:32;4.50;99.90
16879;DHT22;8556;52.218;9.884;2023-12-14T10:43:00;4.50;99.90
16879;DHT22;8556;52.218;9.884;2023-12-14T10:45:30;4.50;99.90
16879;DHT22;8556;52.218;9.884;2023-12-14T10:47:59;4.60;99.90
16879;DHT22;8556;52.218;9.884;2023-12-14T10:50:28;4.70;99.90
16879;DHT22;8556;52.218;9.884;2023-12-14T10:52:56;4.50;99.90
16879;DHT22;8556;52.218;9.884;2023-12-14T10:55:26;4.60;99.90
16879;DHT22;8556;52.218;9.884;2023-12-14T10:57:57;4.70;99.90
16879;DHT22;8556;52.218;9.884;2023-12-14T11:00:24;4.60;99.90
16879;DHT22;8556;52.218;9.884;2023-12-14T11:02:51;4.70;99.90
16879;DHT22;8556;52.218;9.884;2023-12-14T11:05:18;4.60;99.90
16879;DHT22;8556;52.218;9.884;2023-12-14T11:07:50;4.60;99.90
16879;DHT22;8556;52.218;9.884;2023-12-14T11:10:23;4.80;99.90
16879;DHT22;8556;52.218;9.884;2023-12-14T11:13:00;4.70;99.90
16879;DHT22;8556;52.218;9.884;2023-12-14T11:15:29;4.70;99.90
16879;DHT22;8556;52.218;9.884;2023-12-14T11:18:24;5.00;99.90
16879;DHT22;8556;52.218;9.884;2023-12-14T11:20:54;4.60;99.90
16879;DHT22;8556;52.218;9.884;2023-12-14T11:23:33;4.60;99.90
16879;DHT22;8556;52.218;9.884;2023-12-14T11:26:01;4.70;99.90
16879;DHT22;8556;52.218;9.884;2023-12-14T11:28:32;4.70;99.90
16879;DHT22;8556;52.218;9.884;2023-12-14T11:31:00;4.70;99.90
16879;DHT22;8556;52.218;9.884;2023-12-14T11:33:27;4.70;99.90
16879;DHT22;8556;52.218;9.884;2023-12-14T11:35:55;4.60;99.90
16879;DHT22;8556;52.218;9.884;2023-12-14T11:38:24;4.70;99.90
16879;DHT22;8556;52.218;9.884;2023-12-14T11:40:51;4.70;99.90
16879;DHT22;8556;52.218;9.884;2023-12-14T11:43:18;4.70;99.90
16879;DHT22;8556;52.218;9.884;2023-12-14T11:45:48;4.70;99.90
16879;DHT22;8556;52.218;9.884;2023-12-14T11:48:15;4.70;99.90
16879;DHT22;8556;52.218;9.884;2023-12-14T11:50:42;4.70;99.90
16879;DHT22;8556;52.218;9.884;2023-12-14T11:53:10;4.60;99.90
16879;DHT22;8556;52.218;9.884;2023-12-14T11:55:38;4.60;99.90
16879;DHT22;8556;52.218;9.884;2023-12-14T11:58:05;4.60;99.90
16879;DHT22;8556;52.218;9.884;2023-12-14T12:00:34;4.60;99.90
16879;DHT22;8556;52.218;9.884;2023-12-14T12:03:12;4.70;99.90
16879;DHT22;8556;52.218;9.884;2023-12-14T12:05:40;4.80;99.90
16879;DHT22;8556;52.218;9.884;2023-12-14T12:08:09;4.60;99.90
16879;DHT22;8556;52.218;9.884;2023-12-14T12:10:37;4.70;99.90
16879;DHT22;8556;52.218;9.884;2023-12-14T12:13:06;4.70;99.90
16879;DHT22;8556;52.218;9.884;2023-12-14T12:15:33;4.60;99.90
16879;DHT22;8556;52.218;9.884;2023-12-14T12:18:03;4.60;99.90
16879;DHT22;8556;52.218;9.884;2023-12-14T12:20:32;4.70;99.90
16879;DHT22;8556;52.218;9.884;2023-12-14T12:22:58;4.70;99.90
16879;DHT22;8556;52.218;9.884;2023-12-14T12:25:25;4.90;99.90
16879;DHT22;8556;52.218;9.884;2023-12-14T12:27:53;4.70;99.90
16879;DHT22;8556;52.218;9.884;2023-12-14T12:30:20;4.70;99.90
16879;DHT22;8556;52.218;9.884;2023-12-14T12:32:47;4.70;99.90
16879;DHT22;8556;52.218;9.884;2023-12-14T12:35:13;4.70;99.90
16879;DHT22;8556;52.218;9.884;2023-12-14T12:37:42;4.70;99.90
16879;DHT22;8556;52.218;9.884;2023-12-14T12:40:10;4.70;99.90
16879;DHT22;8556;52.218;9.884;2023-12-14T12:42:37;4.70;99.90
16879;DHT22;8556;52.218;9.884;2023-12-14T12:45:05;4.80;99.90
16879;DHT22;8556;52.218;9.884;2023-12-14T12:47:32;4.70;99.90
16879;DHT22;8556;52.218;9.884;2023-12-14T12:49:59;4.80;99.90
16879;DHT22;8556;52.218;9.884;2023-12-14T12:52:26;4.80;99.90
16879;DHT22;8556;52.218;9.884;2023-12-14T12:54:54;4.70;99.90
16879;DHT22;8556;52.218;9.884;2023-12-14T12:57:21;4.70;99.90
16879;DHT22;8556;52.218;9.884;2023-12-14T12:59:48;4.70;99.90
16879;DHT22;8556;52.218;9.884;2023-12-14T13:02:15;4.70;99.90
16879;DHT22;8556;52.218;9.884;2023-12-14T13:04:42;4.70;1.00
16879;DHT22;8556;52.218;9.884;2023-12-14T13:07:08;4.80;1.00
16879;DHT22;8556;52.218;9.884;2023-12-14T13:09:37;4.80;1.00
16879;DHT22;8556;52.218;9.884;2023-12-14T13:12:06;4.90;1.00
16879;DHT22;8556;52.218;9.884;2023-12-14T13:14:33;4.90;1.00
16879;DHT22;8556;52.218;9.884;2023-12-14T13:17:00;4.90;1.00
16879;DHT22;8556;52.218;9.884;2023-12-14T13:19:26;4.90;1.00
16879;DHT22;8556;52.218;9.884;2023-12-14T13:21:54;4.80;1.00
16879;DHT22;8556;52.218;9.884;2023-12-14T13:24:22;4.90;1.00
16879;DHT22;8556;52.218;9.884;2023-12-14T13:26:49;4.80;1.00
16879;DHT22;8556;52.218;9.884;2023-12-14T13:29:17;4.90;1.00
16879;DHT22;8556;52.218;9.884;2023-12-14T13:31:46;4.80;1.00
16879;DHT22;8556;52.218;9.884;2023-12-14T13:34:13;4.80;1.00
16879;DHT22;8556;52.218;9.884;2023-12-14T13:36:39;4.80;7.50
16879;DHT22;8556;52.218;9.884;2023-12-14T13:39:06;4.80;67.10
16879;DHT22;8556;52.218;9.884;2023-12-14T13:41:33;4.90;99.90
16879;DHT22;8556;52.218;9.884;2023-12-14T13:44:00;4.90;99.90
16879;DHT22;8556;52.218;9.884;2023-12-14T13:46:29;4.80;99.90
16879;DHT22;8556;52.218;9.884;2023-12-14T13:48:55;4.80;99.90
16879;DHT22;8556;52.218;9.884;2023-12-14T13:51:22;4.80;99.90
16879;DHT22;8556;52.218;9.884;2023-12-14T13:53:49;4.80;99.90
16879;DHT22;8556;52.218;9.884;2023-12-14T13:56:17;4.80;99.90
16879;DHT22;8556;52.218;9.884;2023-12-14T13:58:44;4.80;99.90
16879;DHT22;8556;52.218;9.884;2023-12-14T14:01:11;4.80;99.90
16879;DHT22;8556;52.218;9.884;2023-12-14T14:03:41;4.80;99.90
16879;DHT22;8556;52.218;9.884;2023-12-14T14:06:08;4.80;99.90
16879;DHT22;8556;52.218;9.884;2023-12-14T14:08:35;4.80;99.90
16879;DHT22;8556;52.218;9.884;2023-12-14T14:11:02;4.80;99.90
16879;DHT22;8556;52.218;9.884;2023-12-14T14:13:29;4.80;99.90
16879;DHT22;8556;52.218;9.884;2023-12-14T14:15:57;4.90;99.90
16879;DHT22;8556;52.218;9.884;2023-12-14T14:18:24;4.80;99.90
16879;DHT22;8556;52.218;9.884;2023-12-14T14:20:52;4.90;99.90
16879;DHT22;8556;52.218;9.884;2023-12-14T14:23:19;4.90;99.90
16879;DHT22;8556;52.218;9.884;2023-12-14T14:25:46;4.90;99.90
16879;DHT22;8556;52.218;9.884;2023-12-14T14:28:13;4.90;99.90
16879;DHT22;8556;52.218;9.884;2023-12-14T14:30:39;4.90;99.90
16879;DHT22;8556;52.218;9.884;2023-12-14T14:33:06;4.90;99.90
16879;DHT22;8556;52.218;9.884;2023-12-14T14:35:33;4.90;99.90
16879;DHT22;8556;52.218;9.884;2023-12-14T14:38:04;5.20;99.90
16879;DHT22;8556;52.218;9.884;2023-12-14T14:40:31;4.90;99.90
16879;DHT22;8556;52.218;9.884;2023-12-14T14:42:58;4.90;99.90
16879;DHT22;8556;52.218;9.884;2023-12-14T14:45:25;4.90;99.90
16879;DHT22;8556;52.218;9.884;2023-12-14T14:47:51;4.90;99.90
16879;DHT22;8556;52.218;9.884;2023-12-14T14:50:18;4.90;99.90
16879;DHT22;8556;52.218;9.884;2023-12-14T14:52:45;4.90;99.90
16879;DHT22;8556;52.218;9.884;2023-12-14T14:55:14;4.90;99.90
16879;DHT22;8556;52.218;9.884;2023-12-14T14:57:41;4.90;99.90
16879;DHT22;8556;52.218;9.884;2023-12-14T15:00:08;4.90;99.90
16879;DHT22;8556;52.218;9.884;2023-12-14T15:02:35;4.90;99.90
16879;DHT22;8556;52.218;9.884;2023-12-14T15:05:02;4.90;99.90
16879;DHT22;8556;52.218;9.884;2023-12-14T15:07:29;4.80;99.90
16879;DHT22;8556;52.218;9.884;2023-12-14T15:09:56;4.90;99.90
16879;DHT22;8556;52.218;9.884;2023-12-14T15:12:24;4.80;99.90
16879;DHT22;8556;52.218;9.884;2023-12-14T15:14:51;4.90;99.90
16879;DHT22;8556;52.218;9.884;2023-12-14T15:17:18;4.90;99.90
16879;DHT22;8556;52.218;9.884;2023-12-14T15:19:44;4.80;99.90
16879;DHT22;8556;52.218;9.884;2023-12-14T15:22:12;4.90;99.90
16879;DHT22;8556;52.218;9.884;2023-12-14T15:24:39;5.00;99.90
16879;DHT22;8556;52.218;9.884;2023-12-14T15:27:05;4.80;99.90
16879;DHT22;8556;52.218;9.884;2023-12-14T15:29:34;4.90;99.90
16879;DHT22;8556;52.218;9.884;2023-12-14T15:32:00;4.90;99.90
16879;DHT22;8556;52.218;9.884;2023-12-14T15:34:28;4.80;80.70
16879;DHT22;8556;52.218;9.884;2023-12-14T15:36:55;4.90;67.50
16879;DHT22;8556;52.218;9.884;2023-12-14T15:39:22;4.90;69.40
16879;DHT22;8556;52.218;9.884;2023-12-14T15:41:48;4.80;31.60
16879;DHT22;8556;52.218;9.884;2023-12-14T15:44:15;4.80;1.00
16879;DHT22;8556;52.218;9.884;2023-12-14T15:46:43;4.80;1.00
16879;DHT22;8556;52.218;9.884;2023-12-14T15:49:10;4.90;1.00
16879;DHT22;8556;52.218;9.884;2023-12-14T15:51:39;4.80;1.00
16879;DHT22;8556;52.218;9.884;2023-12-14T15:54:06;4.80;45.30
16879;DHT22;8556;52.218;9.884;2023-12-14T15:56:32;4.80;14.60
16879;DHT22;8556;52.218;9.884;2023-12-14T15:58:59;4.90;34.90
16879;DHT22;8556;52.218;9.884;2023-12-14T16:01:25;4.80;71.10
16879;DHT22;8556;52.218;9.884;2023-12-14T16:03:53;4.80;41.60